sensor_id;sensor_type;location;lat;lon;timestamp;P1;durP1;ratioP1;P2;durP2;ratioP2
11865;SDS011;5992;52.744;6.898;2023-02-15T00:01:44;14.00;;;11.93;;
11865;SDS011;5992;52.744;6.898;2023-02-15T00:05:09;16.27;;;11.67;;
11865;SDS011;5992;52.744;6.898;2023-02-15T00:08:21;14.20;;;10.00;;
11865;SDS011;5992;52.744;6.898;2023-02-15T00:11:34;15.50;;;10.55;;
11865;SDS011;5992;52.744;6.898;2023-02-15T00:14:40;13.60;;;10.70;;
11865;SDS011;5992;52.744;6.898;2023-02-15T00:17:56;17.05;;;11.50;;
11865;SDS011;5992;52.744;6.898;2023-02-15T00:21:09;14.47;;;11.53;;
11865;SDS011;5992;52.744;6.898;2023-02-15T00:24:34;18.90;;;12.40;;
11865;SDS011;5992;52.744;6.898;2023-02-15T00:27:46;14.60;;;10.75;;
11865;SDS011;5992;52.744;6.898;2023-02-15T00:31:02;15.47;;;11.10;;
11865;SDS011;5992;52.744;6.898;2023-02-15T00:34:04;17.50;;;11.10;;
11865;SDS011;5992;52.744;6.898;2023-02-15T00:37:29;14.83;;;11.23;;
11865;SDS011;5992;52.744;6.898;2023-02-15T00:40:41;12.73;;;10.37;;
11865;SDS011;5992;52.744;6.898;2023-02-15T00:43:56;15.80;;;12.05;;
11865;SDS011;5992;52.744;6.898;2023-02-15T00:46:56;15.55;;;10.85;;
11865;SDS011;5992;52.744;6.898;2023-02-15T00:50:09;17.40;;;11.80;;
11865;SDS011;5992;52.744;6.898;2023-02-15T00:53:23;15.35;;;10.35;;
11865;SDS011;5992;52.744;6.898;2023-02-15T00:56:49;14.90;;;11.20;;
11865;SDS011;5992;52.744;6.898;2023-02-15T00:59:49;15.67;;;10.53;;
11865;SDS011;5992;52.744;6.898;2023-02-15T01:03:01;16.50;;;10.45;;
11865;SDS011;5992;52.744;6.898;2023-02-15T01:06:13;18.40;;;11.23;;
11865;SDS011;5992;52.744;6.898;2023-02-15T01:09:38;16.77;;;11.60;;
11865;SDS011;5992;52.744;6.898;2023-02-15T01:12:51;17.15;;;11.95;;
11865;SDS011;5992;52.744;6.898;2023-02-15T01:16:15;15.63;;;10.70;;
11865;SDS011;5992;52.744;6.898;2023-02-15T01:19:27;14.65;;;10.75;;
11865;SDS011;5992;52.744;6.898;2023-02-15T01:22:39;15.05;;;11.25;;
11865;SDS011;5992;52.744;6.898;2023-02-15T01:25:40;16.30;;;11.13;;
11865;SDS011;5992;52.744;6.898;2023-02-15T01:29:05;16.23;;;10.50;;
11865;SDS011;5992;52.744;6.898;2023-02-15T01:32:17;17.05;;;11.20;;
11865;SDS011;5992;52.744;6.898;2023-02-15T01:35:29;16.33;;;11.23;;
11865;SDS011;5992;52.744;6.898;2023-02-15T01:38:29;14.53;;;10.47;;
11865;SDS011;5992;52.744;6.898;2023-02-15T01:41:42;17.30;;;11.15;;
11865;SDS011;5992;52.744;6.898;2023-02-15T01:44:56;15.60;;;11.15;;
11865;SDS011;5992;52.744;6.898;2023-02-15T01:48:20;16.40;;;11.70;;
11865;SDS011;5992;52.744;6.898;2023-02-15T01:51:35;13.85;;;9.85;;
11865;SDS011;5992;52.744;6.898;2023-02-15T01:55:00;14.85;;;10.95;;
11865;SDS011;5992;52.744;6.898;2023-02-15T01:58:13;15.43;;;11.23;;
11865;SDS011;5992;52.744;6.898;2023-02-15T02:01:39;13.90;;;10.63;;
11865;SDS011;5992;52.744;6.898;2023-02-15T02:05:03;15.77;;;10.77;;
11865;SDS011;5992;52.744;6.898;2023-02-15T02:08:28;14.00;;;11.07;;
11865;SDS011;5992;52.744;6.898;2023-02-15T02:11:44;16.95;;;10.60;;
11865;SDS011;5992;52.744;6.898;2023-02-15T02:15:09;15.63;;;10.40;;
11865;SDS011;5992;52.744;6.898;2023-02-15T02:18:24;16.10;;;10.50;;
11865;SDS011;5992;52.744;6.898;2023-02-15T02:21:54;15.65;;;11.20;;
11865;SDS011;5992;52.744;6.898;2023-02-15T02:28:44;13.53;;;9.93;;
11865;SDS011;5992;52.744;6.898;2023-02-15T02:32:02;14.45;;;10.30;;
11865;SDS011;5992;52.744;6.898;2023-02-15T02:35:28;13.80;;;10.13;;
11865;SDS011;5992;52.744;6.898;2023-02-15T02:38:42;14.87;;;10.43;;
11865;SDS011;5992;52.744;6.898;2023-02-15T02:42:09;15.60;;;10.03;;
11865;SDS011;5992;52.744;6.898;2023-02-15T02:45:20;16.57;;;10.73;;
11865;SDS011;5992;52.744;6.898;2023-02-15T02:48:43;13.80;;;10.00;;
11865;SDS011;5992;52.744;6.898;2023-02-15T02:51:59;13.65;;;10.45;;
11865;SDS011;5992;52.744;6.898;2023-02-15T02:55:24;16.47;;;10.47;;
11865;SDS011;5992;52.744;6.898;2023-02-15T02:58:48;17.83;;;11.07;;
11865;SDS011;5992;52.744;6.898;2023-02-15T03:02:13;13.77;;;9.97;;
11865;SDS011;5992;52.744;6.898;2023-02-15T03:05:38;15.83;;;10.40;;
11865;SDS011;5992;52.744;6.898;2023-02-15T03:09:03;13.97;;;9.87;;
11865;SDS011;5992;52.744;6.898;2023-02-15T03:12:28;12.75;;;9.95;;
11865;SDS011;5992;52.744;6.898;2023-02-15T03:15:51;13.37;;;10.73;;
11865;SDS011;5992;52.744;6.898;2023-02-15T03:19:10;13.90;;;10.05;;
11865;SDS011;5992;52.744;6.898;2023-02-15T03:22:34;12.67;;;9.07;;
11865;SDS011;5992;52.744;6.898;2023-02-15T03:26:00;14.07;;;9.60;;
11865;SDS011;5992;52.744;6.898;2023-02-15T03:29:24;13.80;;;10.05;;
11865;SDS011;5992;52.744;6.898;2023-02-15T03:32:35;11.35;;;8.50;;
11865;SDS011;5992;52.744;6.898;2023-02-15T03:36:01;20.80;;;10.65;;
11865;SDS011;5992;52.744;6.898;2023-02-15T03:39:13;12.83;;;10.27;;
11865;SDS011;5992;52.744;6.898;2023-02-15T03:42:38;12.25;;;10.00;;
11865;SDS011;5992;52.744;6.898;2023-02-15T03:45:51;10.93;;;9.13;;
11865;SDS011;5992;52.744;6.898;2023-02-15T03:49:17;12.30;;;8.90;;
11865;SDS011;5992;52.744;6.898;2023-02-15T03:52:28;12.80;;;8.90;;
11865;SDS011;5992;52.744;6.898;2023-02-15T03:55:53;12.93;;;8.90;;
11865;SDS011;5992;52.744;6.898;2023-02-15T03:59:09;11.30;;;9.00;;
11865;SDS011;5992;52.744;6.898;2023-02-15T04:02:40;10.90;;;8.40;;
11865;SDS011;5992;52.744;6.898;2023-02-15T04:06:04;12.00;;;9.50;;
11865;SDS011;5992;52.744;6.898;2023-02-15T04:09:03;13.13;;;8.97;;
11865;SDS011;5992;52.744;6.898;2023-02-15T04:12:21;10.95;;;8.55;;
11865;SDS011;5992;52.744;6.898;2023-02-15T04:15:23;11.80;;;8.80;;
11865;SDS011;5992;52.744;6.898;2023-02-15T04:18:55;10.33;;;8.27;;
11865;SDS011;5992;52.744;6.898;2023-02-15T04:22:01;13.20;;;9.27;;
11865;SDS011;5992;52.744;6.898;2023-02-15T04:25:20;9.93;;;8.37;;
11865;SDS011;5992;52.744;6.898;2023-02-15T04:28:20;14.30;;;8.60;;
11865;SDS011;5992;52.744;6.898;2023-02-15T04:31:34;12.27;;;8.97;;
11865;SDS011;5992;52.744;6.898;2023-02-15T04:34:47;11.40;;;8.05;;
11865;SDS011;5992;52.744;6.898;2023-02-15T04:37:59;11.47;;;8.67;;
11865;SDS011;5992;52.744;6.898;2023-02-15T04:41:11;11.20;;;8.83;;
11865;SDS011;5992;52.744;6.898;2023-02-15T04:44:23;10.73;;;7.77;;
11865;SDS011;5992;52.744;6.898;2023-02-15T04:47:24;11.30;;;7.75;;
11865;SDS011;5992;52.744;6.898;2023-02-15T04:50:50;10.70;;;7.90;;
11865;SDS011;5992;52.744;6.898;2023-02-15T04:53:50;10.67;;;8.80;;
11865;SDS011;5992;52.744;6.898;2023-02-15T04:57:14;9.97;;;8.30;;
11865;SDS011;5992;52.744;6.898;2023-02-15T05:00:15;10.47;;;7.97;;
11865;SDS011;5992;52.744;6.898;2023-02-15T05:03:29;11.17;;;8.47;;
11865;SDS011;5992;52.744;6.898;2023-02-15T05:06:41;10.80;;;7.77;;
11865;SDS011;5992;52.744;6.898;2023-02-15T05:09:53;9.83;;;7.77;;
11865;SDS011;5992;52.744;6.898;2023-02-15T05:12:53;9.90;;;8.25;;
11865;SDS011;5992;52.744;6.898;2023-02-15T05:16:05;11.70;;;8.10;;
11865;SDS011;5992;52.744;6.898;2023-02-15T05:19:06;10.60;;;7.80;;
11865;SDS011;5992;52.744;6.898;2023-02-15T05:22:31;10.00;;;7.35;;
11865;SDS011;5992;52.744;6.898;2023-02-15T05:25:31;13.13;;;7.80;;
11865;SDS011;5992;52.744;6.898;2023-02-15T05:28:49;9.85;;;7.70;;
11865;SDS011;5992;52.744;6.898;2023-02-15T05:31:49;11.10;;;8.35;;
11865;SDS011;5992;52.744;6.898;2023-02-15T05:35:02;10.57;;;8.43;;
11865;SDS011;5992;52.744;6.898;2023-02-15T05:38:15;10.53;;;8.23;;
11865;SDS011;5992;52.744;6.898;2023-02-15T05:41:34;10.00;;;7.40;;
11865;SDS011;5992;52.744;6.898;2023-02-15T05:44:34;10.73;;;8.13;;
11865;SDS011;5992;52.744;6.898;2023-02-15T05:47:46;10.75;;;7.75;;
11865;SDS011;5992;52.744;6.898;2023-02-15T05:50:56;11.10;;;7.93;;
11865;SDS011;5992;52.744;6.898;2023-02-15T05:54:12;9.95;;;7.90;;
11865;SDS011;5992;52.744;6.898;2023-02-15T05:57:12;10.35;;;7.90;;
11865;SDS011;5992;52.744;6.898;2023-02-15T06:00:25;9.45;;;7.65;;
11865;SDS011;5992;52.744;6.898;2023-02-15T06:03:37;10.73;;;7.23;;
11865;SDS011;5992;52.744;6.898;2023-02-15T06:06:38;9.90;;;7.87;;
11865;SDS011;5992;52.744;6.898;2023-02-15T06:10:03;8.77;;;7.57;;
11865;SDS011;5992;52.744;6.898;2023-02-15T06:13:16;11.10;;;8.45;;
11865;SDS011;5992;52.744;6.898;2023-02-15T06:16:28;11.53;;;8.40;;
11865;SDS011;5992;52.744;6.898;2023-02-15T06:19:28;13.60;;;9.10;;
11865;SDS011;5992;52.744;6.898;2023-02-15T06:22:41;11.60;;;8.67;;
11865;SDS011;5992;52.744;6.898;2023-02-15T06:25:53;13.03;;;9.73;;
11865;SDS011;5992;52.744;6.898;2023-02-15T06:29:06;11.73;;;7.80;;
11865;SDS011;5992;52.744;6.898;2023-02-15T06:32:21;12.07;;;8.13;;
11865;SDS011;5992;52.744;6.898;2023-02-15T06:35:33;11.85;;;8.10;;
11865;SDS011;5992;52.744;6.898;2023-02-15T06:38:34;13.25;;;8.50;;
11865;SDS011;5992;52.744;6.898;2023-02-15T06:41:59;10.13;;;8.27;;
11865;SDS011;5992;52.744;6.898;2023-02-15T06:45:11;10.43;;;8.37;;
11865;SDS011;5992;52.744;6.898;2023-02-15T06:48:36;11.40;;;8.15;;
11865;SDS011;5992;52.744;6.898;2023-02-15T06:51:48;11.60;;;8.43;;
11865;SDS011;5992;52.744;6.898;2023-02-15T06:55:03;13.07;;;10.07;;
11865;SDS011;5992;52.744;6.898;2023-02-15T06:58:15;10.00;;;7.87;;
11865;SDS011;5992;52.744;6.898;2023-02-15T07:01:28;13.03;;;8.10;;
11865;SDS011;5992;52.744;6.898;2023-02-15T07:04:28;10.53;;;8.30;;
11865;SDS011;5992;52.744;6.898;2023-02-15T07:07:40;11.00;;;7.90;;
11865;SDS011;5992;52.744;6.898;2023-02-15T07:10:56;11.77;;;8.40;;
11865;SDS011;5992;52.744;6.898;2023-02-15T07:14:09;14.67;;;9.83;;
11865;SDS011;5992;52.744;6.898;2023-02-15T07:17:09;13.23;;;8.73;;
11865;SDS011;5992;52.744;6.898;2023-02-15T07:20:22;10.10;;;7.85;;
11865;SDS011;5992;52.744;6.898;2023-02-15T07:23:34;16.67;;;10.10;;
11865;SDS011;5992;52.744;6.898;2023-02-15T07:26:48;11.85;;;8.90;;
11865;SDS011;5992;52.744;6.898;2023-02-15T07:30:02;13.43;;;9.87;;
11865;SDS011;5992;52.744;6.898;2023-02-15T07:33:25;15.30;;;11.83;;
11865;SDS011;5992;52.744;6.898;2023-02-15T07:36:26;21.33;;;10.77;;
11865;SDS011;5992;52.744;6.898;2023-02-15T07:39:53;13.40;;;8.97;;
11865;SDS011;5992;52.744;6.898;2023-02-15T07:42:57;12.00;;;9.53;;
11865;SDS011;5992;52.744;6.898;2023-02-15T07:46:19;15.90;;;9.60;;
11865;SDS011;5992;52.744;6.898;2023-02-15T07:49:19;17.20;;;11.57;;
11865;SDS011;5992;52.744;6.898;2023-02-15T07:52:32;17.83;;;11.87;;
11865;SDS011;5992;52.744;6.898;2023-02-15T07:55:32;17.70;;;10.80;;
11865;SDS011;5992;52.744;6.898;2023-02-15T07:58:47;21.03;;;12.97;;
11865;SDS011;5992;52.744;6.898;2023-02-15T08:01:59;12.50;;;9.05;;
11865;SDS011;5992;52.744;6.898;2023-02-15T08:05:11;17.53;;;10.27;;
11865;SDS011;5992;52.744;6.898;2023-02-15T08:08:23;13.15;;;9.30;;
11865;SDS011;5992;52.744;6.898;2023-02-15T08:11:48;19.05;;;12.15;;
11865;SDS011;5992;52.744;6.898;2023-02-15T08:15:02;20.27;;;11.77;;
11865;SDS011;5992;52.744;6.898;2023-02-15T08:18:26;25.60;;;14.30;;
11865;SDS011;5992;52.744;6.898;2023-02-15T08:21:27;21.15;;;12.65;;
11865;SDS011;5992;52.744;6.898;2023-02-15T08:24:50;19.43;;;13.17;;
11865;SDS011;5992;52.744;6.898;2023-02-15T08:27:50;16.03;;;11.20;;
11865;SDS011;5992;52.744;6.898;2023-02-15T08:31:07;21.33;;;13.20;;
11865;SDS011;5992;52.744;6.898;2023-02-15T08:34:22;25.87;;;14.13;;
11865;SDS011;5992;52.744;6.898;2023-02-15T08:37:47;23.60;;;13.30;;
11865;SDS011;5992;52.744;6.898;2023-02-15T08:40:47;25.47;;;10.40;;
11865;SDS011;5992;52.744;6.898;2023-02-15T08:44:00;22.57;;;13.30;;
11865;SDS011;5992;52.744;6.898;2023-02-15T08:47:13;23.73;;;14.63;;
11865;SDS011;5992;52.744;6.898;2023-02-15T08:50:38;21.50;;;13.73;;
11865;SDS011;5992;52.744;6.898;2023-02-15T08:53:39;19.03;;;12.93;;
11865;SDS011;5992;52.744;6.898;2023-02-15T08:57:05;24.87;;;15.27;;
11865;SDS011;5992;52.744;6.898;2023-02-15T09:00:07;28.33;;;17.53;;
11865;SDS011;5992;52.744;6.898;2023-02-15T09:03:21;20.70;;;14.05;;
11865;SDS011;5992;52.744;6.898;2023-02-15T09:06:46;28.57;;;17.10;;
11865;SDS011;5992;52.744;6.898;2023-02-15T09:10:09;24.73;;;15.07;;
11865;SDS011;5992;52.744;6.898;2023-02-15T09:13:09;25.37;;;15.83;;
11865;SDS011;5992;52.744;6.898;2023-02-15T09:16:22;25.50;;;15.30;;
11865;SDS011;5992;52.744;6.898;2023-02-15T09:19:35;26.00;;;15.33;;
11865;SDS011;5992;52.744;6.898;2023-02-15T09:22:59;29.87;;;18.57;;
11865;SDS011;5992;52.744;6.898;2023-02-15T09:26:03;48.67;;;21.87;;
11865;SDS011;5992;52.744;6.898;2023-02-15T09:29:27;37.60;;;21.60;;
11865;SDS011;5992;52.744;6.898;2023-02-15T09:32:27;45.00;;;23.00;;
11865;SDS011;5992;52.744;6.898;2023-02-15T09:35:42;41.27;;;20.60;;
11865;SDS011;5992;52.744;6.898;2023-02-15T09:38:55;38.47;;;22.17;;
11865;SDS011;5992;52.744;6.898;2023-02-15T09:45:47;36.20;;;21.90;;
11865;SDS011;5992;52.744;6.898;2023-02-15T09:49:12;42.47;;;22.07;;
11865;SDS011;5992;52.744;6.898;2023-02-15T09:52:33;32.03;;;18.53;;
11865;SDS011;5992;52.744;6.898;2023-02-15T09:56:01;33.73;;;20.20;;
11865;SDS011;5992;52.744;6.898;2023-02-15T09:59:15;23.77;;;15.53;;
11865;SDS011;5992;52.744;6.898;2023-02-15T10:02:53;31.73;;;18.07;;
11865;SDS011;5992;52.744;6.898;2023-02-15T10:06:23;26.50;;;17.93;;
11865;SDS011;5992;52.744;6.898;2023-02-15T10:09:38;25.10;;;15.75;;
11865;SDS011;5992;52.744;6.898;2023-02-15T10:13:10;23.60;;;15.87;;
11865;SDS011;5992;52.744;6.898;2023-02-15T10:16:22;21.85;;;13.90;;
11865;SDS011;5992;52.744;6.898;2023-02-15T10:19:47;30.70;;;17.60;;
11865;SDS011;5992;52.744;6.898;2023-02-15T10:23:02;29.10;;;17.65;;
11865;SDS011;5992;52.744;6.898;2023-02-15T10:26:27;27.20;;;17.45;;
11865;SDS011;5992;52.744;6.898;2023-02-15T10:29:39;26.63;;;17.40;;
11865;SDS011;5992;52.744;6.898;2023-02-15T10:33:03;26.07;;;17.20;;
11865;SDS011;5992;52.744;6.898;2023-02-15T10:36:19;30.60;;;19.50;;
11865;SDS011;5992;52.744;6.898;2023-02-15T10:39:44;28.53;;;18.83;;
11865;SDS011;5992;52.744;6.898;2023-02-15T10:43:16;24.67;;;15.80;;
11865;SDS011;5992;52.744;6.898;2023-02-15T10:46:43;28.13;;;17.97;;
11865;SDS011;5992;52.744;6.898;2023-02-15T10:49:59;31.77;;;17.57;;
11865;SDS011;5992;52.744;6.898;2023-02-15T10:53:26;30.43;;;17.60;;
11865;SDS011;5992;52.744;6.898;2023-02-15T10:56:38;31.13;;;18.53;;
11865;SDS011;5992;52.744;6.898;2023-02-15T11:00:05;30.50;;;18.67;;
11865;SDS011;5992;52.744;6.898;2023-02-15T11:03:21;31.75;;;19.80;;
11865;SDS011;5992;52.744;6.898;2023-02-15T11:06:46;31.40;;;20.27;;
11865;SDS011;5992;52.744;6.898;2023-02-15T11:09:56;28.87;;;19.47;;
11865;SDS011;5992;52.744;6.898;2023-02-15T11:13:22;26.30;;;16.90;;
11865;SDS011;5992;52.744;6.898;2023-02-15T11:16:36;29.53;;;19.57;;
11865;SDS011;5992;52.744;6.898;2023-02-15T11:20:02;35.90;;;20.50;;
11865;SDS011;5992;52.744;6.898;2023-02-15T11:23:13;42.00;;;20.25;;
11865;SDS011;5992;52.744;6.898;2023-02-15T11:26:37;36.37;;;22.10;;
11865;SDS011;5992;52.744;6.898;2023-02-15T11:29:53;31.33;;;20.27;;
11865;SDS011;5992;52.744;6.898;2023-02-15T11:33:20;29.23;;;17.73;;
11865;SDS011;5992;52.744;6.898;2023-02-15T11:36:32;34.77;;;21.93;;
11865;SDS011;5992;52.744;6.898;2023-02-15T11:39:55;36.00;;;21.70;;
11865;SDS011;5992;52.744;6.898;2023-02-15T11:42:56;38.25;;;22.40;;
11865;SDS011;5992;52.744;6.898;2023-02-15T11:46:20;31.47;;;20.13;;
11865;SDS011;5992;52.744;6.898;2023-02-15T11:49:22;34.53;;;20.53;;
11865;SDS011;5992;52.744;6.898;2023-02-15T11:52:50;32.23;;;21.60;;
11865;SDS011;5992;52.744;6.898;2023-02-15T11:56:02;40.57;;;22.50;;
11865;SDS011;5992;52.744;6.898;2023-02-15T11:59:17;33.95;;;21.30;;
11865;SDS011;5992;52.744;6.898;2023-02-15T12:02:27;36.23;;;20.83;;
11865;SDS011;5992;52.744;6.898;2023-02-15T12:05:49;30.17;;;19.03;;
11865;SDS011;5992;52.744;6.898;2023-02-15T12:09:17;32.03;;;20.03;;
11865;SDS011;5992;52.744;6.898;2023-02-15T12:12:26;36.07;;;20.57;;
11865;SDS011;5992;52.744;6.898;2023-02-15T12:15:51;35.50;;;21.83;;
11865;SDS011;5992;52.744;6.898;2023-02-15T12:19:02;36.33;;;20.63;;
11865;SDS011;5992;52.744;6.898;2023-02-15T12:22:32;38.90;;;22.30;;
11865;SDS011;5992;52.744;6.898;2023-02-15T12:25:49;36.13;;;19.43;;
11865;SDS011;5992;52.744;6.898;2023-02-15T12:29:12;33.10;;;19.50;;
11865;SDS011;5992;52.744;6.898;2023-02-15T12:32:25;24.30;;;17.33;;
11865;SDS011;5992;52.744;6.898;2023-02-15T12:35:54;34.90;;;19.30;;
11865;SDS011;5992;52.744;6.898;2023-02-15T12:39:09;35.73;;;19.80;;
11865;SDS011;5992;52.744;6.898;2023-02-15T12:42:41;40.85;;;19.25;;
11865;SDS011;5992;52.744;6.898;2023-02-15T12:45:52;30.47;;;19.27;;
11865;SDS011;5992;52.744;6.898;2023-02-15T12:49:06;34.40;;;19.07;;
11865;SDS011;5992;52.744;6.898;2023-02-15T12:52:23;31.30;;;17.77;;
11865;SDS011;5992;52.744;6.898;2023-02-15T12:55:51;33.77;;;18.80;;
11865;SDS011;5992;52.744;6.898;2023-02-15T12:59:04;28.47;;;16.60;;
11865;SDS011;5992;52.744;6.898;2023-02-15T13:02:28;30.55;;;18.10;;
11865;SDS011;5992;52.744;6.898;2023-02-15T13:05:41;36.75;;;18.50;;
11865;SDS011;5992;52.744;6.898;2023-02-15T13:09:06;29.43;;;17.40;;
11865;SDS011;5992;52.744;6.898;2023-02-15T13:12:20;30.63;;;16.97;;
11865;SDS011;5992;52.744;6.898;2023-02-15T13:15:44;29.97;;;17.87;;
11865;SDS011;5992;52.744;6.898;2023-02-15T13:18:55;28.87;;;17.67;;
11865;SDS011;5992;52.744;6.898;2023-02-15T13:22:20;27.80;;;17.03;;
11865;SDS011;5992;52.744;6.898;2023-02-15T13:25:32;25.87;;;16.60;;
11865;SDS011;5992;52.744;6.898;2023-02-15T13:29:03;28.50;;;16.47;;
11865;SDS011;5992;52.744;6.898;2023-02-15T13:32:15;25.67;;;16.07;;
11865;SDS011;5992;52.744;6.898;2023-02-15T13:35:39;28.57;;;16.73;;
11865;SDS011;5992;52.744;6.898;2023-02-15T13:38:54;23.70;;;15.80;;
11865;SDS011;5992;52.744;6.898;2023-02-15T13:42:18;23.50;;;15.77;;
11865;SDS011;5992;52.744;6.898;2023-02-15T13:45:33;29.30;;;17.63;;
11865;SDS011;5992;52.744;6.898;2023-02-15T13:48:59;34.43;;;18.10;;
11865;SDS011;5992;52.744;6.898;2023-02-15T13:52:14;25.20;;;15.85;;
11865;SDS011;5992;52.744;6.898;2023-02-15T13:55:38;31.85;;;17.75;;
11865;SDS011;5992;52.744;6.898;2023-02-15T14:02:27;24.75;;;17.20;;
11865;SDS011;5992;52.744;6.898;2023-02-15T14:05:55;23.07;;;15.17;;
11865;SDS011;5992;52.744;6.898;2023-02-15T14:09:10;27.37;;;15.77;;
11865;SDS011;5992;52.744;6.898;2023-02-15T14:12:40;31.03;;;16.50;;
11865;SDS011;5992;52.744;6.898;2023-02-15T14:15:53;22.23;;;14.83;;
11865;SDS011;5992;52.744;6.898;2023-02-15T14:19:19;28.33;;;16.00;;
11865;SDS011;5992;52.744;6.898;2023-02-15T14:22:30;28.07;;;15.50;;
11865;SDS011;5992;52.744;6.898;2023-02-15T14:25:54;28.07;;;15.80;;
11865;SDS011;5992;52.744;6.898;2023-02-15T14:29:07;27.47;;;16.03;;
11865;SDS011;5992;52.744;6.898;2023-02-15T14:32:33;28.35;;;15.60;;
11865;SDS011;5992;52.744;6.898;2023-02-15T14:35:56;33.40;;;16.43;;
11865;SDS011;5992;52.744;6.898;2023-02-15T14:39:23;28.10;;;16.40;;
11865;SDS011;5992;52.744;6.898;2023-02-15T14:42:50;23.55;;;14.35;;
11865;SDS011;5992;52.744;6.898;2023-02-15T14:46:16;27.17;;;14.90;;
11865;SDS011;5992;52.744;6.898;2023-02-15T14:49:30;26.90;;;15.47;;
11865;SDS011;5992;52.744;6.898;2023-02-15T14:56:21;28.10;;;16.83;;
11865;SDS011;5992;52.744;6.898;2023-02-15T14:59:45;25.65;;;14.80;;
11865;SDS011;5992;52.744;6.898;2023-02-15T15:03:01;29.35;;;15.60;;
11865;SDS011;5992;52.744;6.898;2023-02-15T15:06:23;28.15;;;15.95;;
11865;SDS011;5992;52.744;6.898;2023-02-15T15:09:33;27.07;;;15.10;;
11865;SDS011;5992;52.744;6.898;2023-02-15T15:12:58;26.15;;;14.50;;
11865;SDS011;5992;52.744;6.898;2023-02-15T15:16:24;26.85;;;15.55;;
11865;SDS011;5992;52.744;6.898;2023-02-15T15:19:57;27.47;;;15.37;;
11865;SDS011;5992;52.744;6.898;2023-02-15T15:26:41;25.27;;;14.47;;
11865;SDS011;5992;52.744;6.898;2023-02-15T15:29:42;26.00;;;15.70;;
11865;SDS011;5992;52.744;6.898;2023-02-15T15:33:09;24.90;;;14.67;;
11865;SDS011;5992;52.744;6.898;2023-02-15T15:40:07;30.40;;;15.20;;
11865;SDS011;5992;52.744;6.898;2023-02-15T15:43:31;25.15;;;14.20;;
11865;SDS011;5992;52.744;6.898;2023-02-15T15:47:08;23.53;;;14.90;;
11865;SDS011;5992;52.744;6.898;2023-02-15T15:50:20;23.90;;;15.15;;
11865;SDS011;5992;52.744;6.898;2023-02-15T15:53:45;25.77;;;15.93;;
11865;SDS011;5992;52.744;6.898;2023-02-15T15:56:56;26.40;;;15.30;;
11865;SDS011;5992;52.744;6.898;2023-02-15T16:00:30;27.27;;;15.83;;
11865;SDS011;5992;52.744;6.898;2023-02-15T16:03:56;28.30;;;15.15;;
11865;SDS011;5992;52.744;6.898;2023-02-15T16:07:18;20.50;;;13.60;;
11865;SDS011;5992;52.744;6.898;2023-02-15T16:10:40;31.23;;;15.93;;
11865;SDS011;5992;52.744;6.898;2023-02-15T16:13:40;21.65;;;14.00;;
11865;SDS011;5992;52.744;6.898;2023-02-15T16:17:04;21.65;;;13.80;;
11865;SDS011;5992;52.744;6.898;2023-02-15T16:20:18;24.00;;;14.90;;
11865;SDS011;5992;52.744;6.898;2023-02-15T16:23:48;21.30;;;13.47;;
11865;SDS011;5992;52.744;6.898;2023-02-15T16:27:14;23.17;;;14.37;;
11865;SDS011;5992;52.744;6.898;2023-02-15T16:30:38;23.13;;;15.13;;
11865;SDS011;5992;52.744;6.898;2023-02-15T16:33:52;22.30;;;13.50;;
11865;SDS011;5992;52.744;6.898;2023-02-15T16:37:17;25.40;;;14.10;;
11865;SDS011;5992;52.744;6.898;2023-02-15T16:40:40;27.30;;;14.70;;
11865;SDS011;5992;52.744;6.898;2023-02-15T16:44:06;25.53;;;14.90;;
11865;SDS011;5992;52.744;6.898;2023-02-15T16:47:19;23.27;;;13.50;;
11865;SDS011;5992;52.744;6.898;2023-02-15T16:50:46;31.60;;;16.40;;
11865;SDS011;5992;52.744;6.898;2023-02-15T16:54:00;27.50;;;15.10;;
11865;SDS011;5992;52.744;6.898;2023-02-15T16:57:24;25.97;;;15.80;;
11865;SDS011;5992;52.744;6.898;2023-02-15T17:00:36;15.73;;;11.67;;
11865;SDS011;5992;52.744;6.898;2023-02-15T17:04:13;20.00;;;12.70;;
11865;SDS011;5992;52.744;6.898;2023-02-15T17:07:24;23.27;;;13.10;;
11865;SDS011;5992;52.744;6.898;2023-02-15T17:10:38;22.23;;;13.40;;
11865;SDS011;5992;52.744;6.898;2023-02-15T17:17:18;21.10;;;13.23;;
11865;SDS011;5992;52.744;6.898;2023-02-15T17:20:18;28.95;;;16.40;;
11865;SDS011;5992;52.744;6.898;2023-02-15T17:23:43;22.90;;;14.10;;
11865;SDS011;5992;52.744;6.898;2023-02-15T17:26:57;27.55;;;15.05;;
11865;SDS011;5992;52.744;6.898;2023-02-15T17:30:23;24.30;;;14.60;;
11865;SDS011;5992;52.744;6.898;2023-02-15T17:33:37;22.73;;;14.07;;
11865;SDS011;5992;52.744;6.898;2023-02-15T17:37:01;25.30;;;15.93;;
11865;SDS011;5992;52.744;6.898;2023-02-15T17:40:05;20.30;;;12.85;;
11865;SDS011;5992;52.744;6.898;2023-02-15T17:43:26;22.17;;;14.17;;
11865;SDS011;5992;52.744;6.898;2023-02-15T17:46:39;22.13;;;12.90;;
11865;SDS011;5992;52.744;6.898;2023-02-15T17:50:03;19.07;;;12.77;;
11865;SDS011;5992;52.744;6.898;2023-02-15T17:53:15;27.67;;;15.97;;
11865;SDS011;5992;52.744;6.898;2023-02-15T17:56:39;18.17;;;12.20;;
11865;SDS011;5992;52.744;6.898;2023-02-15T17:59:40;19.23;;;12.53;;
11865;SDS011;5992;52.744;6.898;2023-02-15T18:03:11;20.33;;;13.23;;
11865;SDS011;5992;52.744;6.898;2023-02-15T18:06:29;17.37;;;12.43;;
11865;SDS011;5992;52.744;6.898;2023-02-15T18:09:59;18.97;;;13.07;;
11865;SDS011;5992;52.744;6.898;2023-02-15T18:13:05;26.23;;;16.17;;
11865;SDS011;5992;52.744;6.898;2023-02-15T18:16:20;19.10;;;11.25;;
11865;SDS011;5992;52.744;6.898;2023-02-15T18:19:36;18.63;;;11.60;;
11865;SDS011;5992;52.744;6.898;2023-02-15T18:23:01;19.33;;;12.63;;
11865;SDS011;5992;52.744;6.898;2023-02-15T18:26:16;19.13;;;12.53;;
11865;SDS011;5992;52.744;6.898;2023-02-15T18:29:39;18.40;;;12.30;;
11865;SDS011;5992;52.744;6.898;2023-02-15T18:32:41;16.63;;;11.23;;
11865;SDS011;5992;52.744;6.898;2023-02-15T18:36:05;23.33;;;14.17;;
11865;SDS011;5992;52.744;6.898;2023-02-15T18:39:21;19.70;;;11.07;;
11865;SDS011;5992;52.744;6.898;2023-02-15T18:42:43;32.27;;;17.00;;
11865;SDS011;5992;52.744;6.898;2023-02-15T18:45:55;31.33;;;15.27;;
11865;SDS011;5992;52.744;6.898;2023-02-15T18:49:21;23.35;;;15.05;;
11865;SDS011;5992;52.744;6.898;2023-02-15T18:52:35;20.75;;;12.20;;
11865;SDS011;5992;52.744;6.898;2023-02-15T18:55:57;21.10;;;12.30;;
11865;SDS011;5992;52.744;6.898;2023-02-15T18:59:12;20.07;;;14.80;;
11865;SDS011;5992;52.744;6.898;2023-02-15T19:02:36;26.50;;;16.25;;
11865;SDS011;5992;52.744;6.898;2023-02-15T19:05:39;24.75;;;15.65;;
11865;SDS011;5992;52.744;6.898;2023-02-15T19:09:03;19.20;;;11.67;;
11865;SDS011;5992;52.744;6.898;2023-02-15T19:12:03;24.90;;;14.17;;
11865;SDS011;5992;52.744;6.898;2023-02-15T19:15:17;27.93;;;15.67;;
11865;SDS011;5992;52.744;6.898;2023-02-15T19:18:29;20.03;;;12.37;;
11865;SDS011;5992;52.744;6.898;2023-02-15T19:21:43;21.83;;;15.30;;
11865;SDS011;5992;52.744;6.898;2023-02-15T19:24:56;21.60;;;13.90;;
11865;SDS011;5992;52.744;6.898;2023-02-15T19:28:20;19.20;;;14.00;;
11865;SDS011;5992;52.744;6.898;2023-02-15T19:31:31;22.10;;;14.15;;
11865;SDS011;5992;52.744;6.898;2023-02-15T19:34:44;19.05;;;12.50;;
11865;SDS011;5992;52.744;6.898;2023-02-15T19:37:46;19.53;;;13.40;;
11865;SDS011;5992;52.744;6.898;2023-02-15T19:41:14;23.97;;;14.80;;
11865;SDS011;5992;52.744;6.898;2023-02-15T19:44:25;18.00;;;12.40;;
11865;SDS011;5992;52.744;6.898;2023-02-15T19:47:38;15.95;;;12.20;;
11865;SDS011;5992;52.744;6.898;2023-02-15T19:50:39;22.60;;;15.05;;
11865;SDS011;5992;52.744;6.898;2023-02-15T19:54:07;19.65;;;12.15;;
11865;SDS011;5992;52.744;6.898;2023-02-15T19:57:19;26.83;;;16.37;;